Time;durP1;ratioP1;P1;durP2;ratioP2;P2;SDS_P1;SDS_P2;PMS_P1;PMS_P2;Temp;Humidity;BMP_temperature;BMP_pressure;BME280_temperature;BME280_humidity;BME280_pressure;Samples;Min_cycle;Max_cycle;Signal;HPM_P1;HPM_P2
2022/06/07 00:00:41;;;;;;;26.30;18.40;;;12.20;84.80;;;;;;5032704;28;20042;-80
2022/06/07 00:03:08;;;;;;;26.75;16.98;;;12.20;84.90;;;;;;5033223;28;20048;-81
2022/06/07 00:05:39;;;;;;;25.77;16.90;;;12.20;84.90;;;;;;5033156;28;20418;-81
2022/06/07 00:08:07;;;;;;;28.98;17.60;;;12.30;85.00;;;;;;5034006;28;20046;-81
2022/06/07 00:10:34;;;;;;;28.83;17.65;;;12.20;85.00;;;;;;5031665;28;20041;-81
2022/06/07 00:13:02;;;;;;;30.23;18.52;;;12.20;85.00;;;;;;5032959;28;20042;-81
2022/06/07 00:15:31;;;;;;;29.35;18.13;;;12.20;85.00;;;;;;5030492;28;20045;-81
2022/06/07 00:17:58;;;;;;;27.45;18.60;;;12.20;85.10;;;;;;5032191;28;20486;-81
2022/06/07 00:20:26;;;;;;;29.10;18.60;;;12.20;85.10;;;;;;5033461;28;20398;-81
2022/06/07 00:22:54;;;;;;;31.50;19.30;;;12.20;85.20;;;;;;5033465;28;20057;-80
2022/06/07 00:25:22;;;;;;;34.15;19.77;;;12.20;85.30;;;;;;5033418;28;20044;-80
2022/06/07 00:27:50;;;;;;;35.33;20.75;;;12.10;85.40;;;;;;5032341;28;20053;-81
2022/06/07 00:30:18;;;;;;;30.35;19.67;;;12.10;85.50;;;;;;5031858;28;20502;-81
2022/06/07 00:32:46;;;;;;;29.88;19.02;;;12.10;85.60;;;;;;5031999;28;20049;-81
2022/06/07 00:35:15;;;;;;;33.58;20.15;;;12.00;85.70;;;;;;5031582;28;20041;-81
2022/06/07 00:37:42;;;;;;;32.55;20.48;;;12.00;85.80;;;;;;5032910;28;20483;-80
2022/06/07 00:40:11;;;;;;;33.22;19.55;;;12.00;85.80;;;;;;5048879;28;20046;-80
2022/06/07 00:42:39;;;;;;;28.52;19.17;;;12.00;85.90;;;;;;5031796;28;20050;-80
2022/06/07 00:45:12;;;;;;;30.75;19.02;;;12.00;85.90;;;;;;5032135;28;20054;-80
2022/06/07 00:47:39;;;;;;;29.80;20.20;;;12.10;85.90;;;;;;5032243;28;20387;-80
2022/06/07 00:50:46;;;;;;;34.22;20.27;;;12.00;86.00;;;;;;5065690;28;20394;-81
2022/06/07 00:53:26;;;;;;;34.03;19.73;;;12.00;86.00;;;;;;5031907;28;20045;-81
2022/06/07 00:55:59;;;;;;;32.20;20.05;;;12.10;86.00;;;;;;5042151;28;20049;-81
2022/06/07 00:58:29;;;;;;;32.00;20.17;;;12.10;86.00;;;;;;5065209;28;20544;-80
2022/06/07 01:00:58;;;;;;;28.23;19.17;;;12.10;86.00;;;;;;5041913;28;20045;-80
2022/06/07 01:03:27;;;;;;;31.73;19.73;;;12.10;86.00;;;;;;5030493;28;20054;-80
2022/06/07 01:10:43;;;;;;;31.15;21.00;;;12.10;86.00;;;;;;5031379;28;20042;-79
2022/06/07 01:11:32;;;;;;;32.22;20.20;;;12.00;86.10;;;;;;5031674;28;20029;-80
2022/06/07 01:13:59;;;;;;;33.15;20.65;;;12.00;86.10;;;;;;5012448;28;20415;-80
2022/06/07 01:16:31;;;;;;;33.30;20.15;;;12.00;86.10;;;;;;5013232;28;20499;-80
2022/06/07 01:19:00;;;;;;;29.02;20.50;;;12.00;86.10;;;;;;5033270;28;20056;-81
2022/06/07 01:21:40;;;;;;;32.38;20.63;;;12.10;86.20;;;;;;5018344;28;20398;-81
2022/06/07 01:24:11;;;;;;;29.85;19.52;;;12.10;86.20;;;;;;5064575;28;20045;-80
2022/06/07 01:26:59;;;;;;;31.67;19.67;;;12.10;86.20;;;;;;5029073;28;20056;-81
2022/06/07 01:29:27;;;;;;;30.80;19.20;;;12.10;86.20;;;;;;5031319;28;20041;-81
2022/06/07 01:31:55;;;;;;;26.75;18.92;;;12.10;86.20;;;;;;5029402;28;20042;-81
2022/06/07 01:34:27;;;;;;;29.55;19.48;;;12.10;86.20;;;;;;5048304;28;20510;-80
2022/06/07 01:36:56;;;;;;;29.40;19.15;;;12.10;86.20;;;;;;5032099;28;20041;-81
2022/06/07 01:42:13;;;;;;;34.58;20.60;;;12.10;86.30;;;;;;5029789;28;20037;-80
2022/06/07 01:44:44;;;;;;;31.85;20.27;;;12.10;86.30;;;;;;5030062;28;20052;-80
2022/06/07 01:47:16;;;;;;;31.00;19.95;;;12.10;86.30;;;;;;5029236;28;20042;-81
2022/06/07 01:49:49;;;;;;;35.28;20.17;;;12.10;86.40;;;;;;5049987;28;20061;-80
2022/06/07 01:52:20;;;;;;;30.88;19.63;;;12.10;86.40;;;;;;5030393;28;20053;-81
2022/06/07 01:54:51;;;;;;;33.97;20.00;;;12.10;86.40;;;;;;5030845;28;20050;-80
2022/06/07 01:57:23;;;;;;;33.17;20.02;;;12.10;86.40;;;;;;5004906;28;20403;-79
2022/06/07 01:59:55;;;;;;;36.25;20.38;;;12.10;86.40;;;;;;5002310;28;20068;-79
2022/06/07 02:02:27;;;;;;;30.35;19.95;;;12.00;86.40;;;;;;5013078;28;20061;-80
2022/06/07 02:04:56;;;;;;;28.08;18.88;;;12.00;86.50;;;;;;5030345;28;20517;-80
2022/06/07 02:07:26;;;;;;;34.63;20.60;;;12.00;86.50;;;;;;5031014;28;20053;-80
2022/06/07 02:09:58;;;;;;;35.20;20.63;;;12.00;86.50;;;;;;5063724;28;20062;-80
2022/06/07 02:12:30;;;;;;;30.60;19.63;;;12.00;86.60;;;;;;5032166;28;20037;-80
2022/06/07 02:15:00;;;;;;;34.13;20.02;;;12.00;86.60;;;;;;5030803;28;20057;-80
2022/06/07 02:17:28;;;;;;;28.25;20.15;;;12.00;86.60;;;;;;5031791;28;20450;-80
2022/06/07 02:20:19;;;;;;;34.80;20.55;;;12.00;86.60;;;;;;5008543;28;20076;-80
2022/06/07 02:22:47;;;;;;;33.28;20.83;;;12.00;86.60;;;;;;5002866;28;20762;-80
2022/06/07 02:25:14;;;;;;;32.33;19.80;;;11.90;86.60;;;;;;4990652;28;20062;-80
2022/06/07 02:27:42;;;;;;;33.38;20.75;;;11.90;86.60;;;;;;5008587;28;20042;-80
2022/06/07 02:30:11;;;;;;;37.05;21.38;;;11.90;86.70;;;;;;5009039;28;20217;-80
2022/06/07 02:32:40;;;;;;;35.65;20.98;;;11.80;86.70;;;;;;4983285;28;20409;-80
2022/06/07 02:35:08;;;;;;;32.47;21.08;;;11.80;86.80;;;;;;5008799;28;20045;-80
2022/06/07 02:37:38;;;;;;;36.33;20.88;;;11.80;86.90;;;;;;5007825;28;20080;-80
2022/06/07 02:40:08;;;;;;;36.67;22.08;;;11.80;86.90;;;;;;4992003;28;20076;-80
2022/06/07 02:42:35;;;;;;;38.85;22.08;;;11.80;87.00;;;;;;5007787;28;20381;-80
2022/06/07 02:45:04;;;;;;;33.05;21.60;;;11.80;87.00;;;;;;5008570;28;20054;-80
2022/06/07 02:47:31;;;;;;;41.30;22.48;;;11.80;87.10;;;;;;4975560;28;20042;-80
2022/06/07 02:50:06;;;;;;;39.88;21.85;;;11.70;87.20;;;;;;5003811;28;20522;-81
2022/06/07 02:52:38;;;;;;;36.03;22.07;;;11.70;87.20;;;;;;5010670;28;20045;-80
2022/06/07 02:55:18;;;;;;;37.40;22.20;;;11.70;87.20;;;;;;5007953;28;20311;-79
2022/06/07 02:57:47;;;;;;;34.83;22.25;;;11.60;87.30;;;;;;5023425;28;20049;-80
2022/06/07 03:00:20;;;;;;;37.55;23.77;;;11.60;87.30;;;;;;5045705;28;20513;-81
2022/06/07 03:02:48;;;;;;;40.55;23.13;;;11.50;87.40;;;;;;5030546;28;20498;-79
2022/06/07 03:05:18;;;;;;;44.03;23.30;;;11.40;87.50;;;;;;5023627;28;20045;-79
2022/06/07 03:07:51;;;;;;;40.40;24.88;;;11.30;87.60;;;;;;5032058;28;20056;-79
2022/06/07 03:10:20;;;;;;;46.17;25.85;;;11.30;87.70;;;;;;5066719;28;20065;-81
2022/06/07 03:12:48;;;;;;;47.72;25.42;;;11.20;87.80;;;;;;5015054;28;20037;-80
2022/06/07 03:15:19;;;;;;;44.53;24.65;;;11.10;87.80;;;;;;5029616;28;20045;-80
2022/06/07 03:17:47;;;;;;;53.45;27.48;;;11.10;87.90;;;;;;5031450;28;20049;-80
2022/06/07 03:20:19;;;;;;;56.30;29.05;;;11.00;88.00;;;;;;5011362;28;20069;-79
2022/06/07 03:22:47;;;;;;;51.65;27.58;;;11.00;88.10;;;;;;5030747;28;20049;-78
2022/06/07 03:25:15;;;;;;;53.10;27.05;;;10.90;88.10;;;;;;5029225;28;20045;-79
2022/06/07 03:27:44;;;;;;;56.78;27.40;;;10.90;88.10;;;;;;5030301;28;20046;-81
2022/06/07 03:30:15;;;;;;;52.90;27.10;;;10.90;88.20;;;;;;5026957;28;20064;-80
2022/06/07 03:32:45;;;;;;;45.53;26.42;;;10.80;88.20;;;;;;5014133;28;20044;-81
2022/06/07 03:35:15;;;;;;;58.50;28.38;;;10.80;88.30;;;;;;5028069;28;20064;-80
2022/06/07 03:37:44;;;;;;;51.35;27.48;;;10.80;88.30;;;;;;5028771;28;20044;-80
2022/06/07 03:40:42;;;;;;;50.65;26.08;;;10.70;88.40;;;;;;5029552;28;20510;-82
2022/06/07 03:43:05;;;;;;;50.00;26.35;;;10.70;88.40;;;;;;5011793;28;20487;-81
2022/06/07 03:45:32;;;;;;;53.67;26.60;;;10.70;88.50;;;;;;5062726;28;20056;-81
2022/06/07 03:48:00;;;;;;;63.00;27.95;;;10.60;88.50;;;;;;5027583;28;20491;-81
2022/06/07 03:50:29;;;;;;;59.95;29.50;;;10.60;88.50;;;;;;5012666;28;20054;-82
2022/06/07 03:52:57;;;;;;;63.17;30.10;;;10.50;88.60;;;;;;5032794;28;20052;-81
2022/06/07 03:55:25;;;;;;;57.15;29.98;;;10.50;88.70;;;;;;5029376;28;20545;-81
2022/06/07 03:58:01;;;;;;;59.38;29.63;;;10.50;88.70;;;;;;5028887;28;20041;-81
2022/06/07 04:00:30;;;;;;;59.53;29.17;;;10.60;88.80;;;;;;5029494;28;20046;-81
2022/06/07 04:02:59;;;;;;;60.22;30.80;;;10.50;88.80;;;;;;5028800;28;20037;-81
2022/06/07 04:05:27;;;;;;;57.53;28.67;;;10.50;88.80;;;;;;5061127;28;20064;-81
2022/06/07 04:08:11;;;;;;;63.38;29.92;;;10.50;88.90;;;;;;5025785;28;20475;-81
2022/06/07 04:10:59;;;;;;;63.40;30.42;;;10.50;88.90;;;;;;5060473;28;20510;-82
2022/06/07 04:13:34;;;;;;;66.28;31.27;;;10.50;88.90;;;;;;5027550;28;20041;-81
2022/06/07 04:16:07;;;;;;;56.55;29.27;;;10.50;88.90;;;;;;5044148;28;20057;-80
2022/06/07 04:18:43;;;;;;;63.53;30.23;;;10.50;88.90;;;;;;5030073;28;20056;-81
2022/06/07 04:21:12;;;;;;;57.72;31.45;;;10.50;88.90;;;;;;5028706;28;20038;-81
2022/06/07 04:23:41;;;;;;;62.30;31.10;;;10.50;88.90;;;;;;5028973;28;20049;-81
2022/06/07 04:26:21;;;;;;;58.25;29.88;;;10.50;88.90;;;;;;5037272;28;20049;-80
2022/06/07 04:28:49;;;;;;;58.80;29.70;;;10.50;89.00;;;;;;5028837;28;20041;-81
2022/06/07 04:31:20;;;;;;;60.45;30.25;;;10.50;89.00;;;;;;5029140;28;20050;-81
2022/06/07 04:33:49;;;;;;;62.25;30.63;;;10.50;89.00;;;;;;5027902;28;20494;-80
2022/06/07 04:36:22;;;;;;;62.30;31.70;;;10.60;89.00;;;;;;5029726;28;20049;-80
2022/06/07 04:38:53;;;;;;;62.75;30.40;;;10.60;89.00;;;;;;5042505;28;20061;-80
2022/06/07 04:41:25;;;;;;;64.07;31.27;;;10.60;89.00;;;;;;5031596;28;20042;-82
2022/06/07 04:43:58;;;;;;;59.85;31.63;;;10.60;89.00;;;;;;5032608;28;20517;-81
2022/06/07 04:46:28;;;;;;;61.33;32.70;;;10.60;89.00;;;;;;5032297;28;20543;-81
2022/06/07 04:49:01;;;;;;;65.90;34.33;;;10.60;89.00;;;;;;5029032;28;20124;-81
2022/06/07 04:51:34;;;;;;;62.80;31.63;;;10.70;89.00;;;;;;5031633;28;20041;-78
2022/06/07 04:54:14;;;;;;;64.60;32.53;;;10.70;89.00;;;;;;5031903;28;20053;-75
2022/06/07 04:56:45;;;;;;;62.13;31.75;;;10.70;89.00;;;;;;5031358;28;20040;-78
2022/06/07 04:59:13;;;;;;;58.25;31.67;;;10.70;89.00;;;;;;5032152;28;20116;-81
2022/06/07 05:01:51;;;;;;;57.40;31.02;;;10.70;89.10;;;;;;5012454;28;20410;-82
2022/06/07 05:04:25;;;;;;;59.95;32.10;;;10.70;89.10;;;;;;5049177;28;20465;-84
2022/06/07 05:06:55;;;;;;;60.33;31.45;;;10.80;89.00;;;;;;5032854;28;20042;-84
2022/06/07 05:09:47;;;;;;;58.63;30.65;;;10.80;89.10;;;;;;5029067;28;20057;-81
2022/06/07 05:12:23;;;;;;;61.42;29.35;;;10.80;89.10;;;;;;5031532;28;20044;-81
2022/06/07 05:14:53;;;;;;;51.55;29.58;;;10.90;89.00;;;;;;5065201;28;20040;-82
2022/06/07 05:17:29;;;;;;;59.22;29.85;;;10.90;89.00;;;;;;5032152;28;20048;-82
2022/06/07 05:20:00;;;;;;;59.95;30.50;;;11.00;89.00;;;;;;5032759;28;20052;-81
2022/06/07 05:22:29;;;;;;;55.78;30.65;;;11.10;88.90;;;;;;5031993;28;20418;-81
2022/06/07 05:24:58;;;;;;;62.50;31.83;;;11.20;88.80;;;;;;5031689;28;20053;-81
2022/06/07 05:27:39;;;;;;;54.35;29.05;;;11.30;88.80;;;;;;5028424;28;20042;-81
2022/06/07 05:30:13;;;;;;;53.53;29.33;;;11.30;88.70;;;;;;5049575;28;20046;-81
2022/06/07 05:32:47;;;;;;;54.42;29.70;;;11.40;88.70;;;;;;5030893;28;20050;-81
2022/06/07 05:35:23;;;;;;;52.17;28.58;;;11.50;88.60;;;;;;5031127;28;20044;-82
2022/06/07 05:38:02;;;;;;;46.10;26.42;;;11.50;88.50;;;;;;5025594;28;20046;-82
2022/06/07 05:40:32;;;;;;;49.67;29.25;;;11.60;88.50;;;;;;5030370;28;20056;-82
2022/06/07 05:43:01;;;;;;;50.10;27.38;;;11.70;88.40;;;;;;5029188;28;20372;-81
2022/06/07 05:45:37;;;;;;;49.17;28.27;;;11.70;88.40;;;;;;5012382;28;20042;-81
2022/06/07 05:48:12;;;;;;;50.80;28.30;;;11.80;88.30;;;;;;5030168;28;20046;-82
2022/06/07 05:50:48;;;;;;;48.53;27.67;;;11.80;88.30;;;;;;5031392;28;20057;-81
2022/06/07 05:53:18;;;;;;;48.47;28.23;;;11.80;88.20;;;;;;5031841;28;20041;-82
2022/06/07 05:55:47;;;;;;;53.08;28.38;;;11.80;88.20;;;;;;5037665;28;20056;-82
2022/06/07 05:58:16;;;;;;;47.17;28.40;;;11.90;88.10;;;;;;5029205;28;20041;-82
2022/06/07 06:00:46;;;;;;;46.97;27.33;;;11.90;88.10;;;;;;5031469;28;20498;-82
2022/06/07 06:03:19;;;;;;;53.70;28.65;;;11.90;88.10;;;;;;5030042;28;20486;-82
2022/06/07 06:05:48;;;;;;;45.47;28.08;;;12.00;88.00;;;;;;5048017;28;20053;-81
2022/06/07 06:11:18;;;;;;;60.50;32.35;;;12.10;88.00;;;;;;5029420;28;20057;-82
2022/06/07 06:14:09;;;;;;;56.03;29.73;;;12.10;87.90;;;;;;5029086;28;20053;-82
2022/06/07 06:16:41;;;;;;;54.67;30.53;;;12.10;87.90;;;;;;5029306;28;20041;-83
2022/06/07 06:19:14;;;;;;;52.58;30.85;;;12.20;87.90;;;;;;5060502;28;20070;-82
2022/06/07 06:21:46;;;;;;;56.53;30.38;;;12.20;87.80;;;;;;5014090;28;20072;-74
2022/06/07 06:24:22;;;;;;;52.97;30.25;;;12.20;87.80;;;;;;5028533;28;20418;-77
2022/06/07 06:26:52;;;;;;;50.88;29.60;;;12.30;87.80;;;;;;5032255;28;20049;-77
2022/06/07 06:29:23;;;;;;;53.45;29.90;;;12.30;87.70;;;;;;5025795;28;20514;-78
2022/06/07 06:31:53;;;;;;;57.13;30.52;;;12.30;87.60;;;;;;5036828;28;20041;-77
2022/06/07 06:34:21;;;;;;;53.33;29.15;;;12.30;87.60;;;;;;5044689;28;20410;-78
2022/06/07 06:36:49;;;;;;;51.85;29.75;;;12.30;87.60;;;;;;5030759;28;20402;-78
2022/06/07 06:39:24;;;;;;;51.05;29.55;;;12.40;87.50;;;;;;5010397;28;20050;-77
2022/06/07 06:41:54;;;;;;;48.22;29.35;;;12.40;87.60;;;;;;5028292;28;20048;-77
2022/06/07 06:44:33;;;;;;;48.15;28.30;;;12.60;87.50;;;;;;5024989;28;20050;-78
2022/06/07 06:47:01;;;;;;;48.22;28.92;;;12.70;87.40;;;;;;5030205;28;20060;-77
2022/06/07 06:49:32;;;;;;;47.42;27.48;;;12.80;87.20;;;;;;5040616;28;20412;-78
2022/06/07 06:52:10;;;;;;;48.08;29.35;;;12.90;87.10;;;;;;5031390;28;20052;-77
2022/06/07 06:54:40;;;;;;;49.50;28.65;;;13.00;86.80;;;;;;4997169;28;20057;-90
2022/06/07 06:57:17;;;;;;;58.00;29.95;;;13.00;86.60;;;;;;5025028;28;20042;-78
2022/06/07 06:59:53;;;;;;;49.25;28.55;;;13.20;86.40;;;;;;5030159;28;20491;-78
2022/06/07 07:02:21;;;;;;;46.28;27.00;;;13.30;86.10;;;;;;5029922;28;20426;-77
2022/06/07 07:04:57;;;;;;;43.97;26.92;;;13.30;85.90;;;;;;5030315;28;20647;-78
2022/06/07 07:07:25;;;;;;;48.78;27.13;;;13.40;85.60;;;;;;5029765;28;20410;-78
2022/06/07 07:09:56;;;;;;;45.33;25.83;;;13.50;85.50;;;;;;5031220;28;20045;-78
2022/06/07 07:12:24;;;;;;;42.13;24.70;;;13.50;85.20;;;;;;5030435;28;20036;-78
2022/06/07 07:14:59;;;;;;;41.00;24.25;;;13.60;84.90;;;;;;5047618;28;20509;-78
2022/06/07 07:17:34;;;;;;;42.88;25.30;;;13.80;84.60;;;;;;5030887;28;20068;-78
2022/06/07 07:20:04;;;;;;;42.80;24.52;;;13.80;84.30;;;;;;5030563;28;20110;-76
2022/06/07 07:22:36;;;;;;;47.72;25.10;;;13.80;84.10;;;;;;5030008;28;20501;-75
2022/06/07 07:25:06;;;;;;;45.05;24.85;;;13.90;83.90;;;;;;5030561;28;20065;-75
2022/06/07 07:27:34;;;;;;;38.90;22.92;;;14.00;83.70;;;;;;5027071;28;20046;-76
2022/06/07 07:30:03;;;;;;;34.78;20.85;;;14.10;83.50;;;;;;5021048;28;20050;-76
2022/06/07 07:32:36;;;;;;;25.80;16.33;;;14.20;83.20;;;;;;5030336;28;20041;-76
2022/06/07 07:35:05;;;;;;;19.98;13.38;;;14.30;82.90;;;;;;5030554;28;20076;-77
2022/06/07 07:37:42;;;;;;;17.50;11.43;;;14.40;82.40;;;;;;5030512;28;20059;-76
2022/06/07 07:40:14;;;;;;;20.60;12.57;;;14.60;81.70;;;;;;5030612;28;20045;-77
2022/06/07 07:42:42;;;;;;;21.58;13.25;;;14.80;81.10;;;;;;5031525;28;20048;-77
2022/06/07 07:45:17;;;;;;;16.48;11.93;;;14.90;80.60;;;;;;5030585;28;20057;-76
2022/06/07 07:47:47;;;;;;;20.77;12.85;;;15.20;80.10;;;;;;5030573;28;20054;-76
2022/06/07 07:50:15;;;;;;;28.63;16.65;;;15.30;79.50;;;;;;5030612;28;20042;-77
2022/06/07 07:52:48;;;;;;;;;;;15.60;78.80;;;;;;5011348;28;20057;-77
2022/06/07 07:55:15;;;;;;;27.33;15.13;;;15.80;77.70;;;;;;4985965;28;19922;-76
2022/06/07 07:57:46;;;;;;;23.05;13.65;;;16.10;77.70;;;;;;5008948;28;20053;-77
2022/06/07 08:00:18;;;;;;;18.35;11.77;;;16.30;76.90;;;;;;5030921;28;20483;-76
2022/06/07 08:02:55;;;;;;;20.33;12.88;;;16.50;75.80;;;;;;5029901;28;20052;-76
2022/06/07 08:05:38;;;;;;;19.77;11.53;;;16.60;75.20;;;;;;5029871;28;20038;-77
2022/06/07 08:08:06;;;;;;;19.13;11.75;;;16.80;74.40;;;;;;5033856;28;20046;-76
2022/06/07 08:10:34;;;;;;;19.83;11.15;;;16.80;74.20;;;;;;5035318;28;20045;-77
2022/06/07 08:13:03;;;;;;;18.40;11.23;;;16.90;73.40;;;;;;5035179;28;20054;-76
2022/06/07 08:15:33;;;;;;;21.55;11.98;;;16.90;72.70;;;;;;5035208;28;20050;-77
2022/06/07 08:18:04;;;;;;;17.70;12.40;;;16.90;72.10;;;;;;5034767;28;20056;-77
2022/06/07 08:20:35;;;;;;;23.52;13.80;;;16.90;72.10;;;;;;5020421;28;20042;-77
2022/06/07 08:23:05;;;;;;;24.88;13.93;;;17.00;71.90;;;;;;5034957;28;20045;-77
2022/06/07 08:25:34;;;;;;;22.90;14.60;;;17.00;71.60;;;;;;5034815;28;20076;-75
2022/06/07 08:28:02;;;;;;;22.98;14.63;;;17.10;71.50;;;;;;5031029;28;20397;-76
2022/06/07 08:30:29;;;;;;;20.05;13.98;;;17.00;71.20;;;;;;5033929;28;20038;-77
2022/06/07 08:32:57;;;;;;;22.17;14.23;;;17.00;71.20;;;;;;5033341;28;20041;-76
2022/06/07 08:38:11;;;;;;;15.32;11.30;;;16.80;71.30;;;;;;5033798;28;20049;-77
2022/06/07 08:40:44;;;;;;;17.92;11.60;;;16.80;71.30;;;;;;5034523;28;20052;-77
2022/06/07 08:43:23;;;;;;;16.40;12.18;;;16.80;71.20;;;;;;5039908;28;20438;-77
2022/06/07 08:45:54;;;;;;;19.08;11.70;;;17.00;71.30;;;;;;5037709;28;20391;-77
2022/06/07 08:48:28;;;;;;;16.02;10.77;;;17.10;70.60;;;;;;5035427;28;20068;-77
2022/06/07 08:51:05;;;;;;;15.00;11.27;;;17.30;70.30;;;;;;5065597;28;20048;-77
2022/06/07 08:53:40;;;;;;;16.88;11.02;;;17.40;70.10;;;;;;5030470;28;20052;-77
2022/06/07 08:56:16;;;;;;;17.13;12.05;;;17.60;69.60;;;;;;5017139;28;20060;-77
2022/06/07 08:59:03;;;;;;;16.85;11.82;;;17.90;69.10;;;;;;5032992;28;20478;-78
2022/06/07 09:02:05;;;;;;;19.38;11.25;;;18.20;68.50;;;;;;5035241;28;20049;-77
2022/06/07 09:04:36;;;;;;;16.73;11.13;;;18.30;68.00;;;;;;5034376;28;20049;-78
2022/06/07 09:07:12;;;;;;;16.85;10.13;;;18.50;66.60;;;;;;5034737;28;20060;-77
2022/06/07 09:12:34;;;;;;;13.90;9.93;;;18.80;65.90;;;;;;5034578;28;20049;-77
2022/06/07 09:15:20;;;;;;;14.27;10.02;;;18.80;64.80;;;;;;5027703;28;20490;-77
2022/06/07 09:17:51;;;;;;;13.02;9.38;;;18.70;64.40;;;;;;5032933;28;20398;-77
2022/06/07 09:20:31;;;;;;;13.18;9.95;;;18.60;63.60;;;;;;5037834;28;20387;-77
2022/06/07 09:23:01;;;;;;;18.50;11.07;;;18.60;64.10;;;;;;5049402;28;20060;-77
2022/06/07 09:25:29;;;;;;;15.25;10.48;;;18.60;64.60;;;;;;5029040;28;20045;-78
2022/06/07 09:27:58;;;;;;;17.55;9.27;;;18.70;64.30;;;;;;5033526;28;20041;-77
2022/06/07 09:30:29;;;;;;;13.63;9.68;;;18.70;64.00;;;;;;5032207;28;20045;-78
2022/06/07 09:32:57;;;;;;;13.98;10.57;;;18.70;63.30;;;;;;5033939;28;20414;-78
2022/06/07 09:35:38;;;;;;;15.45;10.68;;;18.80;63.70;;;;;;5032296;28;20470;-77
2022/06/07 09:38:25;;;;;;;15.93;11.13;;;19.00;63.30;;;;;;5016431;28;20462;-77
2022/06/07 09:40:52;;;;;;;13.50;11.05;;;19.30;61.90;;;;;;5033625;28;20045;-78
2022/06/07 09:43:29;;;;;;;12.32;9.25;;;19.30;62.30;;;;;;5033551;28;20076;-77
2022/06/07 09:46:07;;;;;;;14.88;9.65;;;19.60;62.50;;;;;;5033310;28;20037;-77
2022/06/07 09:48:41;;;;;;;12.88;9.85;;;19.70;60.70;;;;;;5014254;28;20069;-77
2022/06/07 09:51:21;;;;;;;12.40;8.45;;;19.50;61.00;;;;;;5035740;28;20384;-78
2022/06/07 09:54:02;;;;;;;11.95;8.18;;;19.40;60.90;;;;;;5014040;28;20046;-77
2022/06/07 09:56:30;;;;;;;11.25;8.10;;;19.30;61.00;;;;;;5019854;28;20041;-75
2022/06/07 09:59:37;;;;;;;9.07;7.28;;;19.20;61.40;;;;;;5044661;28;20044;-77
2022/06/07 10:02:11;;;;;;;8.52;6.03;;;19.20;61.10;;;;;;5033322;28;20057;-76
2022/06/07 10:04:52;;;;;;;;;;;19.50;60.70;;;;;;5034948;28;20487;-77
2022/06/07 10:07:28;;;;;;;7.32;5.35;;;19.70;58.10;;;;;;5042863;28;19921;-76
2022/06/07 10:10:23;;;;;;;10.57;6.32;;;19.80;57.60;;;;;;5031633;28;20049;-77
2022/06/07 10:13:10;;;;;;;11.25;5.63;;;19.90;56.70;;;;;;5013564;28;20041;-77
2022/06/07 10:15:44;;;;;;;9.38;6.55;;;20.00;57.00;;;;;;5030764;28;20056;-77
2022/06/07 10:19:04;;;;;;;14.27;6.82;;;20.20;57.70;;;;;;5028805;28;20041;-77
2022/06/07 10:21:54;;;;;;;9.73;6.50;;;20.40;56.80;;;;;;5021021;28;20082;-78
2022/06/07 10:24:44;;;;;;;17.25;6.85;;;20.30;56.80;;;;;;5030848;28;20049;-78
2022/06/07 10:27:22;;;;;;;7.18;6.25;;;20.00;56.50;;;;;;5029232;28;20482;-78
2022/06/07 10:30:00;;;;;;;9.90;6.88;;;19.50;57.10;;;;;;5029902;28;20049;-78
2022/06/07 10:33:24;;;;;;;8.30;6.70;;;19.30;58.70;;;;;;5029655;28;20052;-78
2022/06/07 10:36:05;;;;;;;7.28;5.88;;;19.40;59.30;;;;;;5031304;28;20052;-78
2022/06/07 10:38:54;;;;;;;7.25;5.53;;;19.80;57.60;;;;;;5031693;28;20057;-79
2022/06/07 10:41:55;;;;;;;5.63;5.13;;;19.80;56.80;;;;;;5052676;28;20049;-76
2022/06/07 10:44:38;;;;;;;7.10;5.22;;;20.00;57.50;;;;;;5032192;28;20057;-75
2022/06/07 10:47:41;;;;;;;6.85;5.32;;;20.50;56.90;;;;;;5027705;28;20394;-75
2022/06/07 10:50:31;;;;;;;7.15;5.35;;;21.00;55.30;;;;;;5027633;28;20544;-76
2022/06/07 10:53:16;;;;;;;7.32;5.82;;;21.10;55.30;;;;;;5028875;28;20056;-76
2022/06/07 10:55:47;;;;;;;6.10;5.43;;;21.20;53.20;;;;;;5031845;28;20045;-76
2022/06/07 10:58:27;;;;;;;7.25;6.47;;;20.90;54.30;;;;;;5031039;28;20053;-76
2022/06/07 11:01:16;;;;;;;7.38;5.88;;;20.80;55.40;;;;;;5032024;28;20049;-76
2022/06/07 11:03:49;;;;;;;8.93;6.15;;;21.00;55.90;;;;;;5032152;28;20227;-76
2022/06/07 11:09:43;;;;;;;7.65;5.50;;;21.80;54.60;;;;;;5021026;28;20348;-76
2022/06/07 11:12:16;;;;;;;7.10;5.50;;;22.40;52.20;;;;;;5029144;28;20053;-76
2022/06/07 11:14:59;;;;;;;4.57;4.18;;;22.60;51.90;;;;;;5043553;28;20041;-76
2022/06/07 11:17:51;;;;;;;8.15;5.40;;;22.80;51.60;;;;;;5031648;28;20046;-76
2022/06/07 11:20:29;;;;;;;5.15;4.65;;;23.00;50.50;;;;;;5031623;28;20054;-76
2022/06/07 11:23:20;;;;;;;5.43;4.88;;;23.30;49.70;;;;;;5030888;28;20048;-77
2022/06/07 11:26:17;;;;;;;6.32;5.03;;;23.30;50.30;;;;;;5028403;28;20045;-77
2022/06/07 11:28:48;;;;;;;5.53;4.97;;;23.30;50.00;;;;;;5042264;28;20053;-77
2022/06/07 11:31:36;;;;;;;5.00;4.50;;;23.40;50.00;;;;;;5002703;28;20069;-77
2022/06/07 11:34:24;;;;;;;5.38;4.85;;;23.40;49.40;;;;;;5028787;28;20056;-77
2022/06/07 11:37:07;;;;;;;5.97;3.90;;;23.50;49.10;;;;;;5030915;28;20048;-77
2022/06/07 11:39:38;;;;;;;4.20;3.80;;;23.80;47.60;;;;;;5030135;28;20049;-77
2022/06/07 11:42:17;;;;;;;5.43;4.13;;;23.80;48.10;;;;;;5039626;28;20048;-77
2022/06/07 11:45:11;;;;;;;4.50;3.83;;;23.70;47.30;;;;;;5038205;28;20049;-77
2022/06/07 11:47:45;;;;;;;8.60;3.45;;;23.50;47.50;;;;;;5034222;28;20049;-77
2022/06/07 11:50:27;;;;;;;3.90;3.47;;;23.50;48.00;;;;;;5033115;28;20069;-77
2022/06/07 11:52:59;;;;;;;3.80;3.50;;;23.70;48.00;;;;;;5035577;28;20045;-77
2022/06/07 11:55:38;;;;;;;6.43;3.42;;;23.90;47.30;;;;;;5033971;28;20049;-77
2022/06/07 11:58:07;;;;;;;3.53;3.22;;;24.20;46.90;;;;;;5035112;28;20388;-77
2022/06/07 12:00:35;;;;;;;5.05;3.75;;;24.30;46.10;;;;;;5020348;28;20056;-77
2022/06/07 12:03:07;;;;;;;4.47;4.07;;;24.00;45.70;;;;;;5016454;28;20092;-76
2022/06/07 12:05:37;;;;;;;4.00;3.60;;;23.90;45.50;;;;;;5034487;28;20049;-76
2022/06/07 12:08:32;;;;;;;3.72;3.38;;;23.90;45.30;;;;;;5034222;28;20050;-76
2022/06/07 12:11:22;;;;;;;3.63;3.33;;;23.50;45.20;;;;;;5034949;28;20533;-77
2022/06/07 12:13:56;;;;;;;4.82;3.42;;;23.00;46.40;;;;;;5034949;28;20531;-76
2022/06/07 12:16:40;;;;;;;4.20;3.58;;;22.80;47.50;;;;;;5031107;28;20049;-76
2022/06/07 12:19:20;;;;;;;3.70;3.40;;;23.00;48.00;;;;;;5033159;28;20065;-76
2022/06/07 12:22:07;;;;;;;4.00;3.40;;;23.30;47.70;;;;;;5033246;28;20430;-75
2022/06/07 12:24:54;;;;;;;9.35;3.78;;;23.50;48.20;;;;;;5033118;28;20049;-75
2022/06/07 12:27:29;;;;;;;3.90;3.05;;;24.00;45.50;;;;;;5027666;28;20053;-76
2022/06/07 12:30:03;;;;;;;4.18;3.60;;;24.00;44.70;;;;;;5034572;28;20045;-76
2022/06/07 12:32:38;;;;;;;4.75;4.25;;;24.00;44.80;;;;;;5035773;28;20061;-76
2022/06/07 12:35:29;;;;;;;5.00;4.50;;;24.10;44.10;;;;;;5046829;28;20045;-76
2022/06/07 12:38:00;;;;;;;4.03;3.72;;;24.30;44.70;;;;;;5047056;28;20513;-76
2022/06/07 12:40:48;;;;;;;6.10;4.03;;;24.50;45.20;;;;;;5033979;28;20061;-75
2022/06/07 12:43:26;;;;;;;4.40;4.00;;;24.60;44.50;;;;;;5016651;28;20049;-75
2022/06/07 12:46:03;;;;;;;4.00;3.60;;;24.30;44.40;;;;;;5034465;28;20041;-76
2022/06/07 12:48:39;;;;;;;2.88;2.67;;;23.70;43.30;;;;;;5033600;28;20033;-76
2022/06/07 12:51:28;;;;;;;4.00;3.60;;;23.30;45.10;;;;;;5025686;28;20054;-77
2022/06/07 12:54:17;;;;;;;6.38;4.20;;;23.30;46.10;;;;;;5031728;28;20044;-76
2022/06/07 12:56:51;;;;;;;6.85;3.80;;;23.30;46.60;;;;;;5034881;28;20041;-76
2022/06/07 12:59:33;;;;;;;3.90;3.50;;;23.20;47.00;;;;;;5037124;28;20049;-76
2022/06/07 13:02:02;;;;;;;4.72;4.32;;;23.10;46.90;;;;;;5033020;28;20049;-77
2022/06/07 13:04:35;;;;;;;4.97;4.20;;;23.10;45.90;;;;;;5032231;28;20506;-76
2022/06/07 13:07:19;;;;;;;6.50;3.50;;;22.90;46.50;;;;;;5033299;28;20068;-76
2022/06/07 13:10:14;;;;;;;4.40;3.55;;;23.20;46.70;;;;;;5026666;28;20033;-76
2022/06/07 13:12:46;;;;;;;3.65;3.35;;;23.90;45.30;;;;;;5066016;28;20053;-78
2022/06/07 13:15:25;;;;;;;3.22;3.03;;;24.20;44.60;;;;;;5014741;28;20050;-77
2022/06/07 13:18:04;;;;;;;5.50;3.28;;;24.00;43.80;;;;;;5023475;28;20394;-76
2022/06/07 13:20:40;;;;;;;5.97;3.35;;;23.70;44.50;;;;;;5034140;28;20045;-76
2022/06/07 13:23:28;;;;;;;4.68;2.70;;;23.60;45.40;;;;;;5038088;28;20049;-77
2022/06/07 13:26:15;;;;;;;3.40;2.67;;;23.60;45.50;;;;;;5033098;28;20049;-77
2022/06/07 13:28:44;;;;;;;3.38;2.85;;;23.60;45.40;;;;;;5031932;28;20064;-77